Time;durP1;ratioP1;P1;durP2;ratioP2;P2;SDS_P1;SDS_P2;PMS_P1;PMS_P2;Temp;Humidity;BMP_temperature;BMP_pressure;BME280_temperature;BME280_humidity;BME280_pressure;Samples;Min_cycle;Max_cycle;Signal;HPM_P1;HPM_P2
2022/11/24 00:02:08;;;;;;;29.25;13.10;;;6.80;99.90;;;;;;6185750;23;20120;-80
2022/11/24 00:04:34;;;;;;;21.70;12.02;;;6.80;99.90;;;;;;6159444;23;20017;-80
2022/11/24 00:07:00;;;;;;;31.52;12.68;;;6.80;99.90;;;;;;6186153;23;20067;-79
2022/11/24 00:09:25;;;;;;;27.33;12.13;;;6.80;99.90;;;;;;6159450;23;20052;-79
2022/11/24 00:11:51;;;;;;;28.08;12.80;;;6.80;99.90;;;;;;6186124;23;20129;-79
2022/11/24 00:14:17;;;;;;;25.23;11.30;;;6.80;99.90;;;;;;6185514;23;20383;-79
2022/11/24 00:16:43;;;;;;;29.35;12.15;;;6.80;99.90;;;;;;6186049;23;20017;-79
2022/11/24 00:19:09;;;;;;;25.67;13.00;;;6.70;99.90;;;;;;6185840;23;20093;-79
2022/11/24 00:21:36;;;;;;;25.25;11.48;;;6.80;99.90;;;;;;6186076;23;20017;-79
2022/11/24 00:24:01;;;;;;;27.20;11.18;;;6.80;99.90;;;;;;6186047;23;20017;-79
2022/11/24 00:26:29;;;;;;;29.25;11.07;;;6.90;99.90;;;;;;6185667;23;20163;-79
2022/11/24 00:28:58;;;;;;;30.58;12.27;;;6.80;99.90;;;;;;6185888;23;20025;-80
2022/11/24 00:31:29;;;;;;;26.85;11.05;;;6.80;99.90;;;;;;6186061;23;20016;-80
2022/11/24 00:33:58;;;;;;;23.98;10.85;;;6.90;99.90;;;;;;6186303;23;20025;-80
2022/11/24 00:36:26;;;;;;;24.05;11.38;;;6.90;99.90;;;;;;6186044;23;20457;-80
2022/11/24 00:38:57;;;;;;;24.55;12.23;;;6.90;99.90;;;;;;6185773;23;20021;-80
2022/11/24 00:41:24;;;;;;;23.02;12.07;;;7.00;99.90;;;;;;6187836;23;20107;-80
2022/11/24 00:43:50;;;;;;;26.73;11.70;;;6.90;99.90;;;;;;6161038;23;20024;-80
2022/11/24 00:46:16;;;;;;;30.08;12.00;;;6.90;99.90;;;;;;6187683;23;20020;-80
2022/11/24 00:48:42;;;;;;;33.00;13.25;;;6.90;99.90;;;;;;6187722;23;20020;-80
2022/11/24 00:51:10;;;;;;;29.38;11.57;;;6.90;99.90;;;;;;6187305;23;20017;-80
2022/11/24 00:53:36;;;;;;;31.67;12.63;;;6.90;99.90;;;;;;6187678;23;20017;-80
2022/11/24 00:56:04;;;;;;;30.98;11.63;;;6.80;99.90;;;;;;6187313;23;20337;-80
2022/11/24 00:58:31;;;;;;;33.92;11.65;;;6.90;99.90;;;;;;6187276;23;20025;-79
2022/11/24 01:01:06;;;;;;;26.63;12.55;;;6.90;99.90;;;;;;6187644;23;20092;-79
2022/11/24 01:03:32;;;;;;;26.92;11.85;;;6.80;99.90;;;;;;6187621;23;20080;-79
2022/11/24 01:06:12;;;;;;;26.33;13.05;;;6.90;99.90;;;;;;6187121;23;20519;-79
2022/11/24 01:08:39;;;;;;;25.70;11.55;;;6.80;99.90;;;;;;6187598;23;20039;-79
2022/11/24 01:11:17;;;;;;;27.92;12.68;;;6.80;99.90;;;;;;6187520;23;20017;-79
2022/11/24 01:13:44;;;;;;;32.53;13.70;;;6.80;99.90;;;;;;6187707;23;20091;-79
2022/11/24 01:16:28;;;;;;;29.25;11.90;;;6.80;99.90;;;;;;6160718;23;20025;-79
2022/11/24 01:18:54;;;;;;;34.78;12.50;;;6.80;99.90;;;;;;6187479;23;20017;-79
2022/11/24 01:21:21;;;;;;;34.72;11.65;;;6.80;99.90;;;;;;6187392;23;20051;-79
2022/11/24 01:23:47;;;;;;;37.55;13.10;;;6.80;99.90;;;;;;6187096;23;20028;-79
2022/11/24 01:26:19;;;;;;;31.88;11.57;;;6.80;99.90;;;;;;6160613;23;20453;-79
2022/11/24 01:28:45;;;;;;;32.03;12.80;;;6.80;99.90;;;;;;6160778;23;20017;-79
2022/11/24 01:31:11;;;;;;;31.23;11.80;;;6.80;99.90;;;;;;6186892;23;20057;-79
2022/11/24 01:33:37;;;;;;;33.05;10.90;;;6.90;99.90;;;;;;6160554;23;20029;-79
2022/11/24 01:36:04;;;;;;;28.10;11.98;;;6.90;99.90;;;;;;6160561;23;20088;-79
2022/11/24 01:38:30;;;;;;;37.75;11.88;;;6.80;99.90;;;;;;6187289;23;20040;-79
2022/11/24 01:41:16;;;;;;;32.97;11.40;;;6.90;99.90;;;;;;6187238;23;20345;-79
2022/11/24 01:43:43;;;;;;;27.55;10.38;;;6.90;99.90;;;;;;6186777;23;20038;-79
2022/11/24 01:46:27;;;;;;;26.63;10.52;;;6.90;99.90;;;;;;6186998;23;20020;-79
2022/11/24 01:49:10;;;;;;;27.33;9.45;;;7.00;99.90;;;;;;6187146;23;20017;-79
2022/11/24 01:51:40;;;;;;;33.38;10.00;;;7.00;99.90;;;;;;6160245;23;20139;-79
2022/11/24 01:54:13;;;;;;;26.45;10.23;;;7.00;99.90;;;;;;6160564;23;20144;-79
2022/11/24 01:56:43;;;;;;;28.60;9.50;;;7.00;99.90;;;;;;6160408;23;20057;-79
2022/11/24 01:59:12;;;;;;;25.73;8.77;;;7.10;99.90;;;;;;6187109;23;20009;-79
2022/11/24 02:01:38;;;;;;;25.80;9.05;;;7.00;99.90;;;;;;6160475;23;20092;-79
2022/11/24 02:04:09;;;;;;;28.75;9.77;;;7.10;99.90;;;;;;6187242;23;20039;-79
2022/11/24 02:06:36;;;;;;;29.05;8.02;;;7.20;99.90;;;;;;6186875;23;20337;-80
2022/11/24 02:09:05;;;;;;;34.42;7.93;;;7.20;99.90;;;;;;6187020;23;20009;-80
2022/11/24 02:11:35;;;;;;;21.15;7.85;;;7.20;99.90;;;;;;6160361;23;20095;-80
2022/11/24 02:14:04;;;;;;;25.77;6.45;;;7.30;99.90;;;;;;6187005;23;20022;-80
2022/11/24 02:16:33;;;;;;;32.60;7.90;;;7.30;99.90;;;;;;6160133;23;20017;-80
2022/11/24 02:18:58;;;;;;;21.23;6.30;;;7.30;99.90;;;;;;6186838;23;20029;-80
2022/11/24 02:21:24;;;;;;;35.17;7.22;;;7.20;99.90;;;;;;6160169;23;20024;-81
2022/11/24 02:24:15;;;;;;;20.98;6.75;;;7.20;99.90;;;;;;6186860;23;20093;-80
2022/11/24 02:26:48;;;;;;;22.02;5.75;;;7.30;99.90;;;;;;6160113;23;20025;-80
2022/11/24 02:29:14;;;;;;;21.98;6.57;;;7.30;99.90;;;;;;6186428;23;20467;-80
2022/11/24 02:31:48;;;;;;;25.20;5.95;;;7.30;99.90;;;;;;6186556;23;20056;-80
2022/11/24 02:34:13;;;;;;;22.08;6.03;;;7.30;99.90;;;;;;6186915;23;20013;-80
2022/11/24 02:36:39;;;;;;;20.60;6.57;;;7.30;99.90;;;;;;6186766;23;20381;-80
2022/11/24 02:39:11;;;;;;;25.65;6.22;;;7.30;99.90;;;;;;6186786;23;20451;-80
2022/11/24 02:41:38;;;;;;;25.63;5.65;;;7.30;99.90;;;;;;6186755;23;20020;-80
2022/11/24 02:44:03;;;;;;;24.52;6.80;;;7.30;99.90;;;;;;6186370;23;20071;-80
2022/11/24 02:46:29;;;;;;;20.27;4.97;;;7.20;99.90;;;;;;6186482;23;20025;-80
2022/11/24 02:48:55;;;;;;;17.02;5.55;;;7.20;99.90;;;;;;6159961;23;20024;-80
2022/11/24 02:51:21;;;;;;;25.00;6.10;;;7.30;99.90;;;;;;6159873;23;20017;-80
2022/11/24 02:53:47;;;;;;;20.92;4.75;;;7.20;99.90;;;;;;6186584;23;20017;-80
2022/11/24 02:56:13;;;;;;;20.52;5.70;;;7.20;99.90;;;;;;6159870;23;20354;-80
2022/11/24 02:58:38;;;;;;;21.33;5.60;;;7.20;99.90;;;;;;6159861;23;20454;-80
2022/11/24 03:01:04;;;;;;;22.83;4.70;;;7.20;99.90;;;;;;6186200;23;20072;-80
2022/11/24 03:03:30;;;;;;;17.08;5.07;;;7.10;99.90;;;;;;6185657;23;20083;-80
2022/11/24 03:05:56;;;;;;;23.52;4.88;;;7.10;99.90;;;;;;6186080;23;20017;-79
2022/11/24 03:08:22;;;;;;;21.27;4.95;;;7.10;99.90;;;;;;6186111;23;20048;-80
2022/11/24 03:10:48;;;;;;;24.08;5.90;;;7.10;99.90;;;;;;6186511;23;20020;-79
2022/11/24 03:13:14;;;;;;;22.23;5.35;;;7.10;99.90;;;;;;6159710;23;20021;-79
2022/11/24 03:15:40;;;;;;;21.73;5.50;;;7.10;99.90;;;;;;6159495;23;20049;-80
2022/11/24 03:18:05;;;;;;;21.63;5.50;;;7.10;99.90;;;;;;6186070;23;20021;-80
2022/11/24 03:20:31;;;;;;;18.38;5.63;;;7.00;99.90;;;;;;6186086;23;20032;-80
2022/11/24 03:22:57;;;;;;;20.38;5.50;;;7.00;99.90;;;;;;6159703;23;20013;-80
2022/11/24 03:25:23;;;;;;;17.02;5.65;;;6.90;99.90;;;;;;6186241;23;20059;-79
2022/11/24 03:27:48;;;;;;;22.80;6.30;;;6.90;99.90;;;;;;6186059;23;20319;-80
2022/11/24 03:30:15;;;;;;;16.83;4.95;;;6.90;99.90;;;;;;6159625;23;20020;-80
2022/11/24 03:32:40;;;;;;;17.42;4.75;;;7.00;99.90;;;;;;6185992;23;20397;-80
2022/11/24 03:35:07;;;;;;;23.83;4.90;;;6.90;99.90;;;;;;6186328;23;20021;-80
2022/11/24 03:37:33;;;;;;;21.90;5.15;;;6.90;99.90;;;;;;6186310;23;20020;-80
2022/11/24 03:39:59;;;;;;;24.30;5.25;;;7.00;99.90;;;;;;6186241;23;20017;-79
2022/11/24 03:42:25;;;;;;;26.65;5.93;;;6.90;99.90;;;;;;6159681;23;20349;-79
2022/11/24 03:44:50;;;;;;;22.75;5.18;;;6.90;99.90;;;;;;6186135;23;20021;-79
2022/11/24 03:47:16;;;;;;;15.02;5.25;;;6.90;99.90;;;;;;6185826;23;20017;-80
2022/11/24 03:49:42;;;;;;;21.67;5.47;;;6.90;99.90;;;;;;6186201;23;20108;-80
2022/11/24 03:52:11;;;;;;;28.50;6.32;;;6.80;99.90;;;;;;6159564;23;20169;-80
2022/11/24 03:54:36;;;;;;;23.50;5.85;;;6.80;99.90;;;;;;6186256;23;20017;-80
2022/11/24 03:57:02;;;;;;;21.40;5.57;;;6.80;99.90;;;;;;6159576;23;20048;-80
2022/11/24 03:59:28;;;;;;;22.90;4.70;;;6.80;99.90;;;;;;6186276;23;20052;-80
2022/11/24 04:01:54;;;;;;;24.40;5.18;;;6.80;99.90;;;;;;6186208;23;20013;-80
2022/11/24 04:04:19;;;;;;;16.23;5.15;;;6.70;99.90;;;;;;6186470;23;20385;-80
2022/11/24 04:06:45;;;;;;;19.75;5.55;;;6.70;99.90;;;;;;6185796;23;20013;-80
2022/11/24 04:09:11;;;;;;;28.52;4.97;;;6.70;99.90;;;;;;6186167;23;20044;-80
2022/11/24 04:14:21;;;;;;;22.92;5.22;;;6.80;99.90;;;;;;6186350;23;20052;-79
2022/11/24 04:16:47;;;;;;;24.42;6.18;;;6.80;99.90;;;;;;6188105;23;20017;-80
2022/11/24 04:19:12;;;;;;;21.10;4.97;;;6.80;99.90;;;;;;6187865;23;20445;-80
2022/11/24 04:21:38;;;;;;;17.55;4.38;;;6.80;99.90;;;;;;6161348;23;20083;-80
2022/11/24 04:24:04;;;;;;;23.52;4.95;;;6.90;99.90;;;;;;6187662;23;20329;-80
2022/11/24 04:26:29;;;;;;;21.17;4.70;;;6.90;99.90;;;;;;6187884;23;20016;-80
2022/11/24 04:28:55;;;;;;;26.90;5.15;;;7.00;99.90;;;;;;6161295;23;20021;-80
2022/11/24 04:31:20;;;;;;;26.02;5.53;;;6.90;99.90;;;;;;6187950;23;20330;-80
2022/11/24 04:33:46;;;;;;;16.58;4.70;;;6.90;99.90;;;;;;6187915;23;20330;-79
2022/11/24 04:36:12;;;;;;;24.88;5.75;;;7.10;99.90;;;;;;6187910;23;20349;-79
2022/11/24 04:38:37;;;;;;;15.95;4.80;;;7.10;99.90;;;;;;6187821;23;20017;-80
2022/11/24 04:41:04;;;;;;;20.45;4.65;;;7.10;99.90;;;;;;6161735;23;20067;-80
2022/11/24 04:43:31;;;;;;;21.88;5.78;;;7.10;99.90;;;;;;6187790;23;20017;-79
2022/11/24 04:45:59;;;;;;;20.30;4.32;;;7.10;99.90;;;;;;6187732;23;20017;-79
2022/11/24 04:48:25;;;;;;;24.50;4.43;;;7.10;99.90;;;;;;6187841;23;20017;-79
2022/11/24 04:50:50;;;;;;;16.90;4.80;;;7.20;99.90;;;;;;6187601;23;20016;-80
2022/11/24 04:53:16;;;;;;;21.63;4.55;;;7.20;99.90;;;;;;6187777;23;20013;-79
2022/11/24 04:55:41;;;;;;;14.35;4.28;;;7.20;99.90;;;;;;6161127;23;20096;-80
2022/11/24 04:58:09;;;;;;;28.35;5.03;;;7.10;99.90;;;;;;6187692;23;20044;-80
2022/11/24 05:00:34;;;;;;;21.92;4.55;;;7.10;99.90;;;;;;6187695;23;20059;-80
2022/11/24 05:03:00;;;;;;;19.48;4.93;;;7.10;99.90;;;;;;6187192;23;20092;-80
2022/11/24 05:05:26;;;;;;;18.13;4.60;;;7.10;99.90;;;;;;6187126;23;20013;-80
2022/11/24 05:07:51;;;;;;;23.08;4.47;;;7.00;99.90;;;;;;6187526;23;20023;-80
2022/11/24 05:10:36;;;;;;;14.98;4.22;;;7.00;99.90;;;;;;6187396;23;20048;-80
2022/11/24 05:13:08;;;;;;;22.70;5.15;;;6.90;99.90;;;;;;6160937;23;20084;-80
2022/11/24 05:15:35;;;;;;;18.98;4.45;;;7.00;99.90;;;;;;6187097;23;20088;-80
2022/11/24 05:18:04;;;;;;;18.10;5.10;;;6.90;99.90;;;;;;6187515;23;20025;-80
2022/11/24 05:20:30;;;;;;;15.52;4.35;;;6.90;99.90;;;;;;6187426;23;20013;-80
2022/11/24 05:22:59;;;;;;;18.30;4.95;;;6.90;99.90;;;;;;6160797;23;20032;-79
2022/11/24 05:25:25;;;;;;;21.83;5.55;;;6.90;99.90;;;;;;6187132;23;20092;-80
2022/11/24 05:27:50;;;;;;;19.90;4.70;;;6.80;99.90;;;;;;6186746;23;20041;-80
2022/11/24 05:30:16;;;;;;;20.85;4.35;;;6.90;99.90;;;;;;6160713;23;20021;-80
2022/11/24 05:32:42;;;;;;;22.13;4.82;;;6.80;99.90;;;;;;6186970;23;20349;-80
2022/11/24 05:35:08;;;;;;;19.30;4.75;;;6.90;99.90;;;;;;6186972;23;20088;-80
2022/11/24 05:37:34;;;;;;;18.70;5.05;;;6.80;99.90;;;;;;6187303;23;20013;-79
2022/11/24 05:39:59;;;;;;;26.45;5.40;;;6.80;99.90;;;;;;6187233;23;20041;-79
2022/11/24 05:42:40;;;;;;;16.50;4.00;;;6.70;99.90;;;;;;6187149;23;20021;-79
2022/11/24 05:45:08;;;;;;;13.73;3.78;;;6.70;99.90;;;;;;6160447;23;20088;-80
2022/11/24 05:47:34;;;;;;;22.50;4.60;;;6.70;99.90;;;;;;6187255;23;20016;-80
2022/11/24 05:49:59;;;;;;;12.57;3.72;;;6.60;99.90;;;;;;6187218;23;20009;-80
2022/11/24 05:52:25;;;;;;;24.10;5.00;;;6.60;99.90;;;;;;6187154;23;20322;-80
2022/11/24 05:54:50;;;;;;;23.27;4.38;;;6.60;99.90;;;;;;6187207;23;20388;-80
2022/11/24 05:57:17;;;;;;;19.70;4.03;;;6.60;99.90;;;;;;6187171;23;20350;-80
2022/11/24 05:59:43;;;;;;;14.27;5.65;;;6.60;99.90;;;;;;6186818;23;20027;-80
2022/11/24 06:02:08;;;;;;;15.20;5.00;;;6.60;99.90;;;;;;6187120;23;20043;-80
2022/11/24 06:04:35;;;;;;;31.50;5.95;;;6.60;99.90;;;;;;6186536;23;20016;-80
2022/11/24 06:07:01;;;;;;;18.00;4.25;;;6.60;99.90;;;;;;6187329;23;20087;-80
2022/11/24 06:09:27;;;;;;;13.93;4.32;;;6.60;99.90;;;;;;6187047;23;20044;-80
2022/11/24 06:11:53;;;;;;;19.58;5.47;;;6.50;99.90;;;;;;6187034;23;20013;-80
2022/11/24 06:14:19;;;;;;;24.10;4.47;;;6.60;99.90;;;;;;6160182;23;20025;-79
2022/11/24 06:16:44;;;;;;;19.27;5.05;;;6.60;99.90;;;;;;6186955;23;20059;-80
2022/11/24 06:19:10;;;;;;;16.65;4.60;;;6.50;99.90;;;;;;6186910;23;20040;-80
2022/11/24 06:21:36;;;;;;;15.13;3.50;;;6.60;99.90;;;;;;6160230;23;20073;-80
2022/11/24 06:24:03;;;;;;;20.50;4.07;;;6.50;99.90;;;;;;6160159;23;20099;-80
2022/11/24 06:26:29;;;;;;;14.82;3.60;;;6.60;99.90;;;;;;6186663;23;20072;-80
2022/11/24 06:28:55;;;;;;;20.50;4.82;;;6.60;99.90;;;;;;6160116;23;20025;-80
2022/11/24 06:31:21;;;;;;;25.80;4.15;;;6.60;99.90;;;;;;6186820;23;20017;-79
2022/11/24 06:33:47;;;;;;;16.00;4.15;;;6.60;99.90;;;;;;6160174;23;20013;-80
2022/11/24 06:36:13;;;;;;;11.43;3.90;;;6.60;99.90;;;;;;6186990;23;20049;-80
2022/11/24 06:38:39;;;;;;;17.48;3.75;;;6.60;99.90;;;;;;6186361;23;20028;-80
2022/11/24 06:41:08;;;;;;;17.67;4.57;;;6.50;99.90;;;;;;6159984;23;20055;-80
2022/11/24 06:43:34;;;;;;;20.48;3.90;;;6.60;99.90;;;;;;6186700;23;20032;-80
2022/11/24 06:46:01;;;;;;;14.43;3.70;;;6.50;99.90;;;;;;6159878;23;20024;-80
2022/11/24 06:48:27;;;;;;;21.08;4.18;;;6.50;99.90;;;;;;6186695;23;20020;-80
2022/11/24 06:50:57;;;;;;;18.80;3.92;;;6.60;99.90;;;;;;6186637;23;20332;-80
2022/11/24 06:53:22;;;;;;;20.60;4.32;;;6.60;99.90;;;;;;6159918;23;20017;-80
2022/11/24 06:55:49;;;;;;;16.77;3.53;;;6.50;99.90;;;;;;6186617;23;20160;-80
2022/11/24 06:58:14;;;;;;;20.00;4.25;;;6.50;99.90;;;;;;6186560;23;20047;-79
2022/11/24 07:00:40;;;;;;;10.75;3.53;;;6.50;99.90;;;;;;6186442;23;20040;-80
2022/11/24 07:03:06;;;;;;;13.73;3.60;;;6.50;99.90;;;;;;6186240;23;20326;-80
2022/11/24 07:05:32;;;;;;;16.60;3.75;;;6.40;99.90;;;;;;6159345;23;20100;-80
2022/11/24 07:08:00;;;;;;;18.42;3.78;;;6.40;99.90;;;;;;6158502;23;20045;-80
2022/11/24 07:10:26;;;;;;;17.27;4.03;;;6.50;99.90;;;;;;6186166;23;20100;-80
2022/11/24 07:12:52;;;;;;;26.58;4.38;;;6.50;99.90;;;;;;6186057;23;20057;-80
2022/11/24 07:15:17;;;;;;;16.63;4.50;;;6.50;99.90;;;;;;6185727;23;20009;-80
2022/11/24 07:17:43;;;;;;;11.60;3.30;;;6.40;99.90;;;;;;6186252;23;20025;-80
2022/11/24 07:20:09;;;;;;;21.15;3.83;;;6.40;99.90;;;;;;6185872;23;20464;-80
2022/11/24 07:22:35;;;;;;;20.77;3.47;;;6.40;99.90;;;;;;6185967;23;20028;-80
2022/11/24 07:25:01;;;;;;;16.50;4.40;;;6.50;99.90;;;;;;6186249;23;20013;-80
2022/11/24 07:27:27;;;;;;;23.05;3.88;;;6.50;99.90;;;;;;6186288;23;20013;-80
2022/11/24 07:29:53;;;;;;;19.25;3.95;;;6.50;99.90;;;;;;6185899;23;20040;-80
2022/11/24 07:32:18;;;;;;;16.25;3.90;;;6.50;99.90;;;;;;6185769;23;20079;-80
2022/11/24 07:34:44;;;;;;;14.90;3.70;;;6.50;99.90;;;;;;6185970;23;20480;-80
2022/11/24 07:37:10;;;;;;;16.73;3.47;;;6.60;99.90;;;;;;6186222;23;20053;-80
2022/11/24 07:39:35;;;;;;;17.45;3.92;;;6.60;99.90;;;;;;6159736;23;20110;-80
2022/11/24 07:42:02;;;;;;;12.57;3.05;;;6.60;99.90;;;;;;6186242;23;20088;-80
2022/11/24 07:44:28;;;;;;;14.93;3.63;;;6.60;99.90;;;;;;6186253;23;20017;-80
2022/11/24 07:46:53;;;;;;;12.20;3.22;;;6.70;99.90;;;;;;6185769;23;20025;-80
2022/11/24 07:49:19;;;;;;;24.95;5.10;;;6.70;99.90;;;;;;6186309;23;20445;-80
2022/11/24 07:51:45;;;;;;;14.23;3.22;;;6.80;99.90;;;;;;6188229;23;20028;-80
2022/11/24 07:54:10;;;;;;;11.80;3.05;;;6.80;99.90;;;;;;6161577;23;20405;-80
2022/11/24 07:56:36;;;;;;;20.23;3.67;;;6.80;99.90;;;;;;6187828;23;20058;-80
2022/11/24 07:59:02;;;;;;;14.02;3.38;;;6.90;99.90;;;;;;6161445;23;20441;-80
2022/11/24 08:01:28;;;;;;;12.52;3.20;;;6.90;99.90;;;;;;6161323;23;20021;-80
2022/11/24 08:03:53;;;;;;;20.35;4.40;;;7.00;99.90;;;;;;6161336;23;20024;-80
2022/11/24 08:06:19;;;;;;;17.13;3.20;;;7.00;99.90;;;;;;6187640;23;20021;-80
2022/11/24 08:08:45;;;;;;;19.33;3.50;;;7.10;99.90;;;;;;6187747;23;20123;-80
2022/11/24 08:11:14;;;;;;;10.15;3.40;;;7.10;99.90;;;;;;6187311;23;20013;-80
2022/11/24 08:13:40;;;;;;;17.60;3.08;;;7.10;99.90;;;;;;6160960;23;20017;-80
2022/11/24 08:16:17;;;;;;;14.70;3.38;;;7.20;99.90;;;;;;6187156;23;20025;-80
2022/11/24 08:18:47;;;;;;;11.45;3.47;;;7.20;99.90;;;;;;6187729;23;20032;-81
2022/11/24 08:21:13;;;;;;;15.45;4.03;;;7.30;99.90;;;;;;6187353;23;20442;-81
2022/11/24 08:23:40;;;;;;;18.15;4.78;;;7.30;99.90;;;;;;6187648;23;20088;-81
2022/11/24 08:26:08;;;;;;;14.15;3.60;;;7.30;99.90;;;;;;6187632;23;20059;-82
2022/11/24 08:28:34;;;;;;;13.30;3.85;;;7.40;99.90;;;;;;6187554;23;20013;-81
2022/11/24 08:31:09;;;;;;;15.30;4.53;;;7.40;99.90;;;;;;6187681;23;20028;-82
2022/11/24 08:33:35;;;;;;;14.35;3.63;;;7.50;99.90;;;;;;6160781;23;20053;-81
2022/11/24 08:36:12;;;;;;;16.13;4.35;;;7.50;99.90;;;;;;6187520;23;20096;-79
2022/11/24 08:38:38;;;;;;;15.82;4.10;;;7.50;99.90;;;;;;6187238;23;20437;-80
2022/11/24 08:41:10;;;;;;;15.43;4.15;;;7.60;99.90;;;;;;6187475;23;20023;-79
2022/11/24 08:43:36;;;;;;;16.55;4.22;;;7.60;99.90;;;;;;6187297;23;20056;-80
2022/11/24 08:46:05;;;;;;;14.57;5.07;;;7.60;99.90;;;;;;6187438;23;20093;-80
2022/11/24 08:48:31;;;;;;;17.70;4.10;;;7.60;99.90;;;;;;6160545;23;20017;-81
2022/11/24 08:50:57;;;;;;;14.00;3.83;;;7.70;99.90;;;;;;6186880;23;20021;-79
2022/11/24 08:53:24;;;;;;;13.40;4.75;;;7.80;99.90;;;;;;6160628;23;20051;-79
2022/11/24 08:55:49;;;;;;;17.52;4.80;;;7.80;99.90;;;;;;6187050;23;20064;-80
2022/11/24 08:58:15;;;;;;;14.82;6.07;;;7.90;99.90;;;;;;6160654;23;20024;-79
2022/11/24 09:00:42;;;;;;;18.60;4.88;;;7.90;99.90;;;;;;6185244;23;20016;-80
2022/11/24 09:03:10;;;;;;;13.48;5.32;;;7.90;99.90;;;;;;6186691;23;20406;-81
2022/11/24 09:05:36;;;;;;;17.77;4.70;;;7.90;99.90;;;;;;6186646;23;20350;-80
2022/11/24 09:08:02;;;;;;;18.55;4.90;;;7.90;99.90;;;;;;6187200;23;20571;-81
2022/11/24 09:10:28;;;;;;;17.67;5.63;;;8.00;99.90;;;;;;6186978;23;20092;-81
2022/11/24 09:12:53;;;;;;;15.38;5.20;;;8.00;99.90;;;;;;6187174;23;20016;-81
2022/11/24 09:15:19;;;;;;;21.40;5.35;;;8.10;99.90;;;;;;6186803;23;20392;-81
2022/11/24 09:17:45;;;;;;;15.32;5.13;;;8.10;99.90;;;;;;6186999;23;20056;-80
2022/11/24 09:20:11;;;;;;;18.88;4.75;;;8.20;99.90;;;;;;6187128;23;20013;-80
2022/11/24 09:22:37;;;;;;;14.82;4.68;;;8.10;99.90;;;;;;6187089;23;20032;-80
2022/11/24 09:25:04;;;;;;;15.85;4.28;;;8.10;99.90;;;;;;6186644;23;20017;-80
2022/11/24 09:27:30;;;;;;;16.80;4.47;;;8.20;99.90;;;;;;6187068;23;20021;-80
2022/11/24 09:29:56;;;;;;;20.30;5.05;;;8.30;99.90;;;;;;6187076;23;20088;-79
2022/11/24 09:32:22;;;;;;;13.45;4.40;;;8.30;99.90;;;;;;6186848;23;20056;-80
2022/11/24 09:34:49;;;;;;;14.35;3.90;;;8.30;99.90;;;;;;6186545;23;20017;-80
2022/11/24 09:37:15;;;;;;;13.43;3.50;;;8.40;99.90;;;;;;6186367;23;20472;-80
2022/11/24 09:39:41;;;;;;;12.95;3.72;;;8.40;99.90;;;;;;6186213;23;20017;-81
2022/11/24 09:42:38;;;;;;;15.27;3.92;;;8.50;99.90;;;;;;6187152;23;20024;-80
2022/11/24 09:45:16;;;;;;;15.85;3.92;;;8.60;99.90;;;;;;6180645;23;20342;-80
2022/11/24 09:47:56;;;;;;;18.92;4.90;;;8.70;99.90;;;;;;6160419;23;20079;-80
2022/11/24 09:50:30;;;;;;;13.07;3.65;;;8.70;99.90;;;;;;6187149;23;20020;-80
2022/11/24 09:53:04;;;;;;;16.92;3.95;;;8.80;99.90;;;;;;6187082;23;20013;-79
2022/11/24 09:55:34;;;;;;;12.00;3.35;;;8.80;99.90;;;;;;6186022;23;20021;-78
2022/11/24 09:58:22;;;;;;;12.50;3.58;;;8.90;99.90;;;;;;6186846;23;20020;-79
2022/11/24 10:00:50;;;;;;;11.35;3.85;;;8.90;99.90;;;;;;6186214;23;20076;-79
2022/11/24 10:03:24;;;;;;;7.88;2.97;;;9.00;99.90;;;;;;6160147;23;20388;-80
2022/11/24 10:05:50;;;;;;;7.90;2.42;;;9.00;99.90;;;;;;6186823;23;20028;-80
2022/11/24 10:08:31;;;;;;;9.73;3.78;;;8.90;99.90;;;;;;6186857;23;20013;-80
2022/11/24 10:10:59;;;;;;;10.50;3.03;;;9.00;99.90;;;;;;6186664;23;20349;-80
2022/11/24 10:13:28;;;;;;;8.75;3.03;;;9.00;99.90;;;;;;6186581;23;20013;-81
2022/11/24 10:16:21;;;;;;;10.32;2.35;;;9.10;99.90;;;;;;6186410;23;20028;-80
2022/11/24 10:19:01;;;;;;;;;;;9.10;99.90;;;;;;6187238;23;20021;-81
2022/11/24 10:22:12;;;;;;;9.10;3.17;;;9.20;99.90;;;;;;6160181;23;20308;-81
2022/11/24 10:24:49;;;;;;;7.43;2.33;;;9.20;99.90;;;;;;6042519;23;20027;-81
2022/11/24 10:27:17;;;;;;;6.78;2.30;;;9.30;99.90;;;;;;6178954;23;20021;-81
2022/11/24 10:29:46;;;;;;;10.15;2.67;;;9.40;99.90;;;;;;6186715;23;20088;-80
2022/11/24 10:32:17;;;;;;;7.25;1.80;;;9.50;99.90;;;;;;6186669;23;20021;-80
2022/11/24 10:34:45;;;;;;;10.98;2.03;;;9.50;99.90;;;;;;6186575;23;20346;-80
2022/11/24 10:37:11;;;;;;;13.68;2.35;;;9.50;99.90;;;;;;6159977;23;20442;-81
2022/11/24 10:40:06;;;;;;;6.15;1.60;;;9.60;99.90;;;;;;6186537;23;20067;-80
2022/11/24 10:42:37;;;;;;;7.60;1.63;;;9.70;99.90;;;;;;6186633;23;20045;-80
2022/11/24 10:45:02;;;;;;;10.23;3.25;;;9.70;99.90;;;;;;6186539;23;20013;-80
2022/11/24 10:47:30;;;;;;;12.10;2.38;;;9.80;99.90;;;;;;6186221;23;20059;-80
2022/11/24 10:50:11;;;;;;;8.35;1.77;;;9.80;99.90;;;;;;6159872;23;20017;-80
2022/11/24 10:52:42;;;;;;;8.00;2.47;;;9.90;99.90;;;;;;6186516;23;20071;-80
2022/11/24 10:55:09;;;;;;;5.25;2.17;;;10.00;99.90;;;;;;6186151;23;20460;-80
2022/11/24 10:57:37;;;;;;;13.73;2.03;;;9.90;99.90;;;;;;6159708;23;20028;-80
2022/11/24 11:00:23;;;;;;;7.35;2.30;;;9.90;99.90;;;;;;6186141;23;20053;-80
2022/11/24 11:03:08;;;;;;;10.63;2.60;;;10.00;99.90;;;;;;6139555;23;20014;-80
2022/11/24 11:05:48;;;;;;;7.32;2.25;;;9.90;99.90;;;;;;6186239;23;20016;-80
2022/11/24 11:08:21;;;;;;;5.78;2.10;;;10.00;99.90;;;;;;6159639;23;20327;-80
2022/11/24 11:10:50;;;;;;;10.77;3.70;;;10.10;99.90;;;;;;6159797;23;20017;-80
2022/11/24 11:13:33;;;;;;;9.65;2.70;;;10.10;99.90;;;;;;6185897;23;20063;-80
2022/11/24 11:15:59;;;;;;;9.23;2.85;;;10.10;99.90;;;;;;6159577;23;20029;-79
2022/11/24 11:18:32;;;;;;;14.18;3.60;;;10.10;99.90;;;;;;6186154;23;20412;-80
2022/11/24 11:21:00;;;;;;;;;;;10.10;99.90;;;;;;6186437;23;20314;-80
2022/11/24 11:23:34;;;;;;;12.32;3.50;;;10.10;99.90;;;;;;6159304;23;20324;-80
2022/11/24 11:26:21;;;;;;;11.98;3.50;;;10.20;99.90;;;;;;6186038;23;20025;-80
2022/11/24 11:29:13;;;;;;;10.27;3.53;;;10.30;99.90;;;;;;6159743;23;20021;-81
2022/11/24 11:31:39;;;;;;;9.65;2.72;;;10.30;99.90;;;;;;6186319;23;20017;-80
2022/11/24 11:34:08;;;;;;;15.40;2.70;;;10.40;99.90;;;;;;6186134;23;20032;-80
2022/11/24 11:36:38;;;;;;;13.02;2.90;;;10.40;99.90;;;;;;6186234;23;20014;-80
2022/11/24 11:39:04;;;;;;;12.32;3.65;;;10.40;99.90;;;;;;6186086;23;20009;-79
2022/11/24 11:41:32;;;;;;;9.57;2.60;;;10.40;99.90;;;;;;6185861;23;20079;-80
2022/11/24 11:44:33;;;;;;;15.10;3.05;;;10.50;99.90;;;;;;6159493;23;20017;-80
2022/11/24 11:47:02;;;;;;;13.45;3.17;;;10.40;99.90;;;;;;6185713;23;20346;-79
2022/11/24 11:49:27;;;;;;;16.10;3.70;;;10.50;99.90;;;;;;6185787;23;20442;-80
2022/11/24 11:52:37;;;;;;;16.67;2.95;;;10.40;99.90;;;;;;6159467;23;20017;-80
2022/11/24 11:55:24;;;;;;;10.10;2.83;;;10.40;99.90;;;;;;6129929;23;20446;-80
2022/11/24 11:57:56;;;;;;;15.90;3.17;;;10.50;99.90;;;;;;6159476;23;20429;-80
2022/11/24 12:00:21;;;;;;;10.52;2.95;;;10.40;99.90;;;;;;6159397;23;20021;-80
2022/11/24 12:03:17;;;;;;;10.20;2.67;;;10.50;99.90;;;;;;6186053;23;20464;-80
2022/11/24 12:06:19;;;;;;;16.17;3.92;;;10.60;99.90;;;;;;6185581;23;20334;-80
2022/11/24 12:09:19;;;;;;;11.43;3.13;;;10.60;99.90;;;;;;6141294;23;20024;-79
2022/11/24 12:11:45;;;;;;;11.45;2.95;;;10.60;99.90;;;;;;6186213;23;20139;-79
2022/11/24 12:14:21;;;;;;;14.05;2.70;;;10.70;99.90;;;;;;6185641;23;20044;-80
2022/11/24 12:17:14;;;;;;;12.70;2.58;;;10.70;99.90;;;;;;6186071;23;20017;-80
2022/11/24 12:20:02;;;;;;;19.15;3.58;;;10.70;99.90;;;;;;6186133;23;20027;-80
2022/11/24 12:22:51;;;;;;;14.32;2.50;;;10.70;99.90;;;;;;6185732;23;20017;-79
2022/11/24 12:25:19;;;;;;;6.82;2.67;;;10.70;99.90;;;;;;6185802;23;20009;-79
2022/11/24 12:28:00;;;;;;;14.50;3.38;;;10.80;99.90;;;;;;6159310;23;20021;-79
2022/11/24 12:30:47;;;;;;;10.93;2.80;;;10.80;99.90;;;;;;6159344;23;20071;-78
2022/11/24 12:33:22;;;;;;;17.23;2.90;;;10.80;99.90;;;;;;6185534;23;20497;-79
2022/11/24 12:36:07;;;;;;;15.27;3.10;;;10.80;99.90;;;;;;6186371;23;20349;-79
2022/11/24 12:39:02;;;;;;;15.02;2.78;;;10.90;99.90;;;;;;6187662;23;20067;-79
2022/11/24 12:41:43;;;;;;;15.23;3.45;;;10.90;99.90;;;;;;6166466;23;20068;-79
2022/11/24 12:44:36;;;;;;;13.55;2.47;;;10.90;99.90;;;;;;6161093;23;20381;-79
2022/11/24 12:47:28;;;;;;;14.55;2.45;;;10.90;99.90;;;;;;6186306;23;20028;-79
2022/11/24 12:50:28;;;;;;;13.93;2.70;;;10.90;99.90;;;;;;6187169;23;20018;-79
2022/11/24 12:53:10;;;;;;;17.33;2.60;;;10.80;99.90;;;;;;6181357;23;20454;-79
2022/11/24 12:55:38;;;;;;;11.05;2.63;;;10.80;99.90;;;;;;6187656;23;20024;-79
2022/11/24 12:58:33;;;;;;;9.02;2.70;;;10.70;99.90;;;;;;6187190;23;20342;-79
2022/11/24 13:01:12;;;;;;;12.30;2.63;;;10.80;99.90;;;;;;6141780;23;20025;-79
2022/11/24 13:04:10;;;;;;;9.50;1.85;;;10.70;99.90;;;;;;6160830;23;20017;-80